sensor_id;sensor_type;location;lat;lon;timestamp;P1;durP1;ratioP1;P2;durP2;ratioP2
54171;SDS011;40076;52.354;4.970;2023-06-24T00:00:29;9.70;;;6.65;;
54171;SDS011;40076;52.354;4.970;2023-06-24T00:02:58;7.80;;;6.13;;
54171;SDS011;40076;52.354;4.970;2023-06-24T00:05:26;8.10;;;6.38;;
54171;SDS011;40076;52.354;4.970;2023-06-24T00:07:52;11.50;;;7.13;;
54171;SDS011;40076;52.354;4.970;2023-06-24T00:10:18;10.38;;;7.10;;
54171;SDS011;40076;52.354;4.970;2023-06-24T00:12:43;11.85;;;7.78;;
54171;SDS011;40076;52.354;4.970;2023-06-24T00:15:10;9.85;;;7.57;;
54171;SDS011;40076;52.354;4.970;2023-06-24T00:17:35;10.20;;;7.75;;
54171;SDS011;40076;52.354;4.970;2023-06-24T00:20:01;9.63;;;7.05;;
54171;SDS011;40076;52.354;4.970;2023-06-24T00:22:29;9.95;;;6.97;;
54171;SDS011;40076;52.354;4.970;2023-06-24T00:24:54;11.00;;;7.40;;
54171;SDS011;40076;52.354;4.970;2023-06-24T00:27:21;9.80;;;7.15;;
54171;SDS011;40076;52.354;4.970;2023-06-24T00:29:47;9.95;;;8.00;;
54171;SDS011;40076;52.354;4.970;2023-06-24T00:32:15;10.07;;;7.47;;
54171;SDS011;40076;52.354;4.970;2023-06-24T00:34:41;10.75;;;7.65;;
54171;SDS011;40076;52.354;4.970;2023-06-24T00:37:10;8.80;;;7.32;;
54171;SDS011;40076;52.354;4.970;2023-06-24T00:39:47;10.88;;;7.97;;
54171;SDS011;40076;52.354;4.970;2023-06-24T00:45:02;11.82;;;8.13;;
54171;SDS011;40076;52.354;4.970;2023-06-24T00:47:30;10.88;;;8.70;;
54171;SDS011;40076;52.354;4.970;2023-06-24T00:52:35;9.57;;;7.53;;
54171;SDS011;40076;52.354;4.970;2023-06-24T00:55:02;9.43;;;7.28;;
54171;SDS011;40076;52.354;4.970;2023-06-24T00:57:35;9.07;;;7.68;;
54171;SDS011;40076;52.354;4.970;2023-06-24T01:00:02;8.95;;;7.07;;
54171;SDS011;40076;52.354;4.970;2023-06-24T01:02:33;9.88;;;7.40;;
54171;SDS011;40076;52.354;4.970;2023-06-24T01:07:49;10.05;;;7.18;;
54171;SDS011;40076;52.354;4.970;2023-06-24T01:10:21;11.05;;;7.68;;
54171;SDS011;40076;52.354;4.970;2023-06-24T01:12:48;9.13;;;7.47;;
54171;SDS011;40076;52.354;4.970;2023-06-24T01:15:18;9.55;;;6.60;;
54171;SDS011;40076;52.354;4.970;2023-06-24T01:31:55;7.20;;;6.32;;
54171;SDS011;40076;52.354;4.970;2023-06-24T01:34:25;9.13;;;6.88;;
54171;SDS011;40076;52.354;4.970;2023-06-24T01:37:13;9.38;;;7.30;;
54171;SDS011;40076;52.354;4.970;2023-06-24T01:39:47;9.02;;;6.97;;
54171;SDS011;40076;52.354;4.970;2023-06-24T01:42:16;8.32;;;6.43;;
54171;SDS011;40076;52.354;4.970;2023-06-24T01:44:45;10.68;;;7.15;;
54171;SDS011;40076;52.354;4.970;2023-06-24T01:47:14;9.18;;;6.20;;
54171;SDS011;40076;52.354;4.970;2023-06-24T01:49:43;8.60;;;6.18;;
54171;SDS011;40076;52.354;4.970;2023-06-24T01:52:10;10.27;;;6.60;;
54171;SDS011;40076;52.354;4.970;2023-06-24T01:54:38;11.23;;;6.70;;
54171;SDS011;40076;52.354;4.970;2023-06-24T01:57:05;7.72;;;5.80;;
54171;SDS011;40076;52.354;4.970;2023-06-24T01:59:33;8.27;;;6.15;;
54171;SDS011;40076;52.354;4.970;2023-06-24T02:02:02;8.18;;;6.30;;
54171;SDS011;40076;52.354;4.970;2023-06-24T02:04:30;8.10;;;5.97;;
54171;SDS011;40076;52.354;4.970;2023-06-24T02:06:58;9.60;;;5.88;;
54171;SDS011;40076;52.354;4.970;2023-06-24T02:09:26;7.90;;;5.75;;
54171;SDS011;40076;52.354;4.970;2023-06-24T02:11:54;7.63;;;5.53;;
54171;SDS011;40076;52.354;4.970;2023-06-24T02:14:22;8.98;;;6.05;;
54171;SDS011;40076;52.354;4.970;2023-06-24T02:16:47;7.68;;;5.82;;
54171;SDS011;40076;52.354;4.970;2023-06-24T02:22:22;8.25;;;5.68;;
54171;SDS011;40076;52.354;4.970;2023-06-24T02:24:49;9.05;;;5.35;;
54171;SDS011;40076;52.354;4.970;2023-06-24T02:27:15;7.13;;;5.38;;
54171;SDS011;40076;52.354;4.970;2023-06-24T02:29:41;6.43;;;5.13;;
54171;SDS011;40076;52.354;4.970;2023-06-24T02:32:08;7.25;;;5.03;;
54171;SDS011;40076;52.354;4.970;2023-06-24T02:34:34;6.70;;;5.00;;
54171;SDS011;40076;52.354;4.970;2023-06-24T02:36:59;8.63;;;4.85;;
54171;SDS011;40076;52.354;4.970;2023-06-24T02:39:25;7.80;;;4.45;;
54171;SDS011;40076;52.354;4.970;2023-06-24T02:41:50;7.13;;;4.70;;
54171;SDS011;40076;52.354;4.970;2023-06-24T02:44:16;9.10;;;4.60;;
54171;SDS011;40076;52.354;4.970;2023-06-24T02:46:42;6.03;;;4.20;;
54171;SDS011;40076;52.354;4.970;2023-06-24T02:49:10;7.20;;;4.55;;
54171;SDS011;40076;52.354;4.970;2023-06-24T02:51:39;6.38;;;4.25;;
54171;SDS011;40076;52.354;4.970;2023-06-24T02:54:05;7.97;;;4.57;;
54171;SDS011;40076;52.354;4.970;2023-06-24T02:56:35;6.75;;;3.83;;
54171;SDS011;40076;52.354;4.970;2023-06-24T02:59:06;6.40;;;4.07;;
54171;SDS011;40076;52.354;4.970;2023-06-24T03:01:32;7.47;;;3.88;;
54171;SDS011;40076;52.354;4.970;2023-06-24T03:04:03;5.20;;;3.70;;
54171;SDS011;40076;52.354;4.970;2023-06-24T03:06:32;6.80;;;3.85;;
54171;SDS011;40076;52.354;4.970;2023-06-24T03:09:01;6.28;;;3.83;;
54171;SDS011;40076;52.354;4.970;2023-06-24T03:11:29;7.35;;;3.55;;
54171;SDS011;40076;52.354;4.970;2023-06-24T03:13:55;5.88;;;3.65;;
54171;SDS011;40076;52.354;4.970;2023-06-24T03:16:20;7.35;;;3.50;;
54171;SDS011;40076;52.354;4.970;2023-06-24T03:18:46;10.43;;;3.75;;
54171;SDS011;40076;52.354;4.970;2023-06-24T03:21:11;6.63;;;3.72;;
54171;SDS011;40076;52.354;4.970;2023-06-24T03:23:37;9.70;;;3.65;;
54171;SDS011;40076;52.354;4.970;2023-06-24T03:26:02;6.03;;;3.90;;
54171;SDS011;40076;52.354;4.970;2023-06-24T03:28:47;6.03;;;3.55;;
54171;SDS011;40076;52.354;4.970;2023-06-24T03:31:13;4.82;;;3.20;;
54171;SDS011;40076;52.354;4.970;2023-06-24T03:36:28;5.30;;;3.58;;
54171;SDS011;40076;52.354;4.970;2023-06-24T03:38:54;4.57;;;3.03;;
54171;SDS011;40076;52.354;4.970;2023-06-24T03:41:19;8.88;;;3.22;;
54171;SDS011;40076;52.354;4.970;2023-06-24T03:43:46;6.00;;;3.30;;
54171;SDS011;40076;52.354;4.970;2023-06-24T03:46:12;7.03;;;3.53;;
54171;SDS011;40076;52.354;4.970;2023-06-24T03:48:37;5.28;;;3.25;;
54171;SDS011;40076;52.354;4.970;2023-06-24T03:51:03;6.85;;;3.67;;
54171;SDS011;40076;52.354;4.970;2023-06-24T03:53:28;7.00;;;4.13;;
54171;SDS011;40076;52.354;4.970;2023-06-24T03:55:54;7.30;;;3.67;;
54171;SDS011;40076;52.354;4.970;2023-06-24T03:58:19;6.50;;;3.60;;
54171;SDS011;40076;52.354;4.970;2023-06-24T04:00:46;6.47;;;3.55;;
54171;SDS011;40076;52.354;4.970;2023-06-24T04:03:14;6.35;;;3.58;;
54171;SDS011;40076;52.354;4.970;2023-06-24T04:05:40;5.72;;;3.60;;
54171;SDS011;40076;52.354;4.970;2023-06-24T04:08:05;7.28;;;3.50;;
54171;SDS011;40076;52.354;4.970;2023-06-24T04:10:32;6.10;;;3.50;;
54171;SDS011;40076;52.354;4.970;2023-06-24T04:12:58;5.60;;;3.47;;
54171;SDS011;40076;52.354;4.970;2023-06-24T04:15:23;6.35;;;3.70;;
54171;SDS011;40076;52.354;4.970;2023-06-24T04:17:49;7.60;;;4.43;;
54171;SDS011;40076;52.354;4.970;2023-06-24T04:20:14;6.95;;;3.50;;
54171;SDS011;40076;52.354;4.970;2023-06-24T04:22:40;6.43;;;3.35;;
54171;SDS011;40076;52.354;4.970;2023-06-24T04:25:06;6.63;;;4.00;;
54171;SDS011;40076;52.354;4.970;2023-06-24T04:27:32;9.50;;;4.43;;
54171;SDS011;40076;52.354;4.970;2023-06-24T04:30:01;5.88;;;3.80;;
54171;SDS011;40076;52.354;4.970;2023-06-24T04:32:27;5.70;;;4.05;;
54171;SDS011;40076;52.354;4.970;2023-06-24T04:34:52;9.68;;;4.35;;
54171;SDS011;40076;52.354;4.970;2023-06-24T04:37:18;8.68;;;4.57;;
54171;SDS011;40076;52.354;4.970;2023-06-24T04:39:44;6.43;;;4.30;;
54171;SDS011;40076;52.354;4.970;2023-06-24T04:42:09;9.40;;;4.57;;
54171;SDS011;40076;52.354;4.970;2023-06-24T04:44:35;8.55;;;4.65;;
54171;SDS011;40076;52.354;4.970;2023-06-24T04:47:01;6.75;;;4.30;;
54171;SDS011;40076;52.354;4.970;2023-06-24T04:49:27;7.40;;;4.40;;
54171;SDS011;40076;52.354;4.970;2023-06-24T04:51:52;8.65;;;4.47;;
54171;SDS011;40076;52.354;4.970;2023-06-24T04:54:18;7.40;;;3.65;;
54171;SDS011;40076;52.354;4.970;2023-06-24T04:56:43;5.95;;;4.00;;
54171;SDS011;40076;52.354;4.970;2023-06-24T04:59:10;5.82;;;3.92;;
54171;SDS011;40076;52.354;4.970;2023-06-24T05:01:45;7.55;;;4.22;;
54171;SDS011;40076;52.354;4.970;2023-06-24T05:04:11;7.85;;;4.65;;
54171;SDS011;40076;52.354;4.970;2023-06-24T05:06:36;9.43;;;4.70;;
54171;SDS011;40076;52.354;4.970;2023-06-24T05:09:01;9.05;;;4.43;;
54171;SDS011;40076;52.354;4.970;2023-06-24T05:11:27;7.60;;;4.38;;
54171;SDS011;40076;52.354;4.970;2023-06-24T05:13:53;6.45;;;4.30;;
54171;SDS011;40076;52.354;4.970;2023-06-24T05:16:19;7.07;;;4.53;;
54171;SDS011;40076;52.354;4.970;2023-06-24T05:18:45;8.35;;;4.55;;
54171;SDS011;40076;52.354;4.970;2023-06-24T05:21:10;8.25;;;4.90;;
54171;SDS011;40076;52.354;4.970;2023-06-24T05:23:36;8.65;;;4.55;;
54171;SDS011;40076;52.354;4.970;2023-06-24T05:26:01;7.40;;;4.90;;
54171;SDS011;40076;52.354;4.970;2023-06-24T05:28:27;9.30;;;4.82;;
54171;SDS011;40076;52.354;4.970;2023-06-24T05:30:52;10.15;;;5.82;;
54171;SDS011;40076;52.354;4.970;2023-06-24T05:33:18;8.73;;;5.72;;
54171;SDS011;40076;52.354;4.970;2023-06-24T05:35:43;12.35;;;5.63;;
54171;SDS011;40076;52.354;4.970;2023-06-24T05:38:09;10.40;;;5.68;;
54171;SDS011;40076;52.354;4.970;2023-06-24T05:40:34;8.43;;;5.32;;
54171;SDS011;40076;52.354;4.970;2023-06-24T05:43:00;9.45;;;5.90;;
54171;SDS011;40076;52.354;4.970;2023-06-24T05:45:26;10.80;;;6.53;;
54171;SDS011;40076;52.354;4.970;2023-06-24T05:47:51;8.27;;;5.82;;
54171;SDS011;40076;52.354;4.970;2023-06-24T05:50:17;8.95;;;5.78;;
54171;SDS011;40076;52.354;4.970;2023-06-24T05:52:42;10.10;;;6.45;;
54171;SDS011;40076;52.354;4.970;2023-06-24T05:55:10;11.85;;;6.05;;
54171;SDS011;40076;52.354;4.970;2023-06-24T05:57:49;8.32;;;5.65;;
54171;SDS011;40076;52.354;4.970;2023-06-24T06:00:17;10.02;;;5.97;;
54171;SDS011;40076;52.354;4.970;2023-06-24T06:02:49;8.98;;;5.70;;
54171;SDS011;40076;52.354;4.970;2023-06-24T06:05:17;9.75;;;5.93;;
54171;SDS011;40076;52.354;4.970;2023-06-24T06:07:42;9.32;;;5.82;;
54171;SDS011;40076;52.354;4.970;2023-06-24T06:10:08;8.60;;;5.47;;
54171;SDS011;40076;52.354;4.970;2023-06-24T06:12:35;8.23;;;5.70;;
54171;SDS011;40076;52.354;4.970;2023-06-24T06:15:01;9.35;;;4.95;;
54171;SDS011;40076;52.354;4.970;2023-06-24T06:17:26;10.23;;;5.80;;
54171;SDS011;40076;52.354;4.970;2023-06-24T06:22:39;11.15;;;5.32;;
54171;SDS011;40076;52.354;4.970;2023-06-24T06:25:05;8.77;;;5.07;;
54171;SDS011;40076;52.354;4.970;2023-06-24T06:27:33;8.55;;;5.38;;
54171;SDS011;40076;52.354;4.970;2023-06-24T06:30:03;10.27;;;5.43;;
54171;SDS011;40076;52.354;4.970;2023-06-24T06:35:50;9.60;;;5.65;;
54171;SDS011;40076;52.354;4.970;2023-06-24T06:38:15;9.73;;;5.70;;
54171;SDS011;40076;52.354;4.970;2023-06-24T06:40:41;10.10;;;5.03;;
54171;SDS011;40076;52.354;4.970;2023-06-24T06:43:06;8.00;;;5.13;;
54171;SDS011;40076;52.354;4.970;2023-06-24T06:45:34;7.90;;;5.30;;
54171;SDS011;40076;52.354;4.970;2023-06-24T06:48:00;8.98;;;5.45;;
54171;SDS011;40076;52.354;4.970;2023-06-24T06:50:32;8.30;;;6.07;;
54171;SDS011;40076;52.354;4.970;2023-06-24T06:52:58;11.48;;;5.82;;
54171;SDS011;40076;52.354;4.970;2023-06-24T06:58:43;11.93;;;6.13;;
54171;SDS011;40076;52.354;4.970;2023-06-24T07:04:13;10.48;;;5.45;;
54171;SDS011;40076;52.354;4.970;2023-06-24T07:06:39;9.60;;;5.25;;
54171;SDS011;40076;52.354;4.970;2023-06-24T07:09:05;10.10;;;5.72;;
54171;SDS011;40076;52.354;4.970;2023-06-24T07:11:30;9.07;;;5.93;;
54171;SDS011;40076;52.354;4.970;2023-06-24T07:13:56;10.18;;;6.15;;
54171;SDS011;40076;52.354;4.970;2023-06-24T07:16:21;9.68;;;6.00;;
54171;SDS011;40076;52.354;4.970;2023-06-24T07:18:47;10.57;;;5.95;;
54171;SDS011;40076;52.354;4.970;2023-06-24T07:21:12;8.13;;;6.15;;
54171;SDS011;40076;52.354;4.970;2023-06-24T07:23:38;8.15;;;6.07;;
54171;SDS011;40076;52.354;4.970;2023-06-24T07:26:07;7.40;;;6.22;;
54171;SDS011;40076;52.354;4.970;2023-06-24T07:28:32;11.50;;;6.00;;
54171;SDS011;40076;52.354;4.970;2023-06-24T07:31:00;12.50;;;6.70;;
54171;SDS011;40076;52.354;4.970;2023-06-24T07:33:26;10.73;;;6.65;;
54171;SDS011;40076;52.354;4.970;2023-06-24T07:35:51;15.40;;;6.90;;
54171;SDS011;40076;52.354;4.970;2023-06-24T07:41:12;9.63;;;6.65;;
54171;SDS011;40076;52.354;4.970;2023-06-24T07:43:38;10.85;;;6.22;;
54171;SDS011;40076;52.354;4.970;2023-06-24T07:46:04;10.38;;;6.13;;
54171;SDS011;40076;52.354;4.970;2023-06-24T07:48:29;9.15;;;6.53;;
54171;SDS011;40076;52.354;4.970;2023-06-24T07:50:54;8.32;;;5.85;;
54171;SDS011;40076;52.354;4.970;2023-06-24T07:53:22;9.95;;;6.10;;
54171;SDS011;40076;52.354;4.970;2023-06-24T07:55:50;10.20;;;6.38;;
54171;SDS011;40076;52.354;4.970;2023-06-24T07:58:16;7.72;;;5.43;;
54171;SDS011;40076;52.354;4.970;2023-06-24T08:00:42;9.65;;;6.20;;
54171;SDS011;40076;52.354;4.970;2023-06-24T08:03:08;10.07;;;5.97;;
54171;SDS011;40076;52.354;4.970;2023-06-24T08:05:46;10.05;;;6.50;;
54171;SDS011;40076;52.354;4.970;2023-06-24T08:08:12;8.07;;;5.78;;
54171;SDS011;40076;52.354;4.970;2023-06-24T08:10:43;9.63;;;6.07;;
54171;SDS011;40076;52.354;4.970;2023-06-24T08:27:20;11.20;;;7.22;;
54171;SDS011;40076;52.354;4.970;2023-06-24T08:29:49;9.77;;;6.05;;
54171;SDS011;40076;52.354;4.970;2023-06-24T08:32:15;10.35;;;6.32;;
54171;SDS011;40076;52.354;4.970;2023-06-24T08:34:40;7.55;;;5.45;;
54171;SDS011;40076;52.354;4.970;2023-06-24T08:37:05;10.23;;;6.30;;
54171;SDS011;40076;52.354;4.970;2023-06-24T08:42:07;9.40;;;6.60;;
54171;SDS011;40076;52.354;4.970;2023-06-24T08:44:33;8.82;;;5.57;;
54171;SDS011;40076;52.354;4.970;2023-06-24T08:50:20;10.23;;;7.00;;
54171;SDS011;40076;52.354;4.970;2023-06-24T08:52:50;10.48;;;6.20;;
54171;SDS011;40076;52.354;4.970;2023-06-24T08:55:17;10.00;;;6.93;;
54171;SDS011;40076;52.354;4.970;2023-06-24T08:57:47;9.82;;;6.80;;
54171;SDS011;40076;52.354;4.970;2023-06-24T09:00:15;7.63;;;6.10;;
54171;SDS011;40076;52.354;4.970;2023-06-24T09:02:40;8.75;;;5.63;;
54171;SDS011;40076;52.354;4.970;2023-06-24T09:05:08;8.13;;;6.50;;
54171;SDS011;40076;52.354;4.970;2023-06-24T09:07:34;19.65;;;6.47;;
54171;SDS011;40076;52.354;4.970;2023-06-24T09:09:59;9.20;;;7.57;;
54171;SDS011;40076;52.354;4.970;2023-06-24T09:12:28;10.23;;;7.15;;
54171;SDS011;40076;52.354;4.970;2023-06-24T09:14:57;9.48;;;7.25;;
54171;SDS011;40076;52.354;4.970;2023-06-24T09:17:22;10.57;;;6.65;;
54171;SDS011;40076;52.354;4.970;2023-06-24T09:19:48;11.30;;;6.90;;
54171;SDS011;40076;52.354;4.970;2023-06-24T09:22:14;8.27;;;6.05;;
54171;SDS011;40076;52.354;4.970;2023-06-24T09:24:44;12.98;;;8.00;;
54171;SDS011;40076;52.354;4.970;2023-06-24T09:27:14;12.95;;;7.70;;
54171;SDS011;40076;52.354;4.970;2023-06-24T09:29:41;8.98;;;7.22;;
54171;SDS011;40076;52.354;4.970;2023-06-24T09:32:07;9.32;;;6.72;;
54171;SDS011;40076;52.354;4.970;2023-06-24T09:34:33;10.07;;;7.93;;
54171;SDS011;40076;52.354;4.970;2023-06-24T09:36:59;16.90;;;8.63;;
54171;SDS011;40076;52.354;4.970;2023-06-24T09:39:25;13.38;;;7.78;;
54171;SDS011;40076;52.354;4.970;2023-06-24T09:41:55;12.07;;;8.00;;
54171;SDS011;40076;52.354;4.970;2023-06-24T09:44:21;11.20;;;7.50;;
54171;SDS011;40076;52.354;4.970;2023-06-24T09:46:46;15.05;;;8.13;;
54171;SDS011;40076;52.354;4.970;2023-06-24T09:49:12;10.43;;;7.50;;
54171;SDS011;40076;52.354;4.970;2023-06-24T09:51:39;10.55;;;7.63;;
54171;SDS011;40076;52.354;4.970;2023-06-24T09:54:16;8.60;;;6.10;;
54171;SDS011;40076;52.354;4.970;2023-06-24T09:56:50;11.20;;;6.90;;
54171;SDS011;40076;52.354;4.970;2023-06-24T09:59:18;11.00;;;7.43;;
54171;SDS011;40076;52.354;4.970;2023-06-24T10:01:48;9.32;;;6.78;;
54171;SDS011;40076;52.354;4.970;2023-06-24T10:04:18;10.48;;;7.43;;
54171;SDS011;40076;52.354;4.970;2023-06-24T10:06:44;10.45;;;6.60;;
54171;SDS011;40076;52.354;4.970;2023-06-24T10:09:10;9.95;;;6.72;;
54171;SDS011;40076;52.354;4.970;2023-06-24T10:11:38;13.45;;;7.38;;
54171;SDS011;40076;52.354;4.970;2023-06-24T10:14:04;10.57;;;6.30;;
54171;SDS011;40076;52.354;4.970;2023-06-24T10:16:29;10.10;;;6.00;;
54171;SDS011;40076;52.354;4.970;2023-06-24T10:19:02;12.13;;;7.30;;
54171;SDS011;40076;52.354;4.970;2023-06-24T10:21:44;11.18;;;7.25;;
54171;SDS011;40076;52.354;4.970;2023-06-24T10:24:39;16.33;;;6.78;;
54171;SDS011;40076;52.354;4.970;2023-06-24T10:27:16;10.85;;;6.03;;
54171;SDS011;40076;52.354;4.970;2023-06-24T10:29:47;9.20;;;6.10;;
54171;SDS011;40076;52.354;4.970;2023-06-24T10:32:14;7.53;;;5.68;;
54171;SDS011;40076;52.354;4.970;2023-06-24T10:34:43;7.63;;;5.45;;
54171;SDS011;40076;52.354;4.970;2023-06-24T10:37:19;6.43;;;4.75;;
54171;SDS011;40076;52.354;4.970;2023-06-24T10:39:52;8.98;;;5.00;;
54171;SDS011;40076;52.354;4.970;2023-06-24T10:44:50;6.70;;;5.05;;
54171;SDS011;40076;52.354;4.970;2023-06-24T10:47:16;8.48;;;5.57;;
54171;SDS011;40076;52.354;4.970;2023-06-24T10:49:43;9.48;;;5.40;;
54171;SDS011;40076;52.354;4.970;2023-06-24T10:52:08;8.13;;;5.47;;
54171;SDS011;40076;52.354;4.970;2023-06-24T10:54:38;9.05;;;5.40;;
54171;SDS011;40076;52.354;4.970;2023-06-24T10:57:05;8.45;;;5.50;;
54171;SDS011;40076;52.354;4.970;2023-06-24T10:59:34;8.15;;;5.40;;
54171;SDS011;40076;52.354;4.970;2023-06-24T11:02:00;8.15;;;4.93;;
54171;SDS011;40076;52.354;4.970;2023-06-24T11:04:25;8.18;;;5.30;;
54171;SDS011;40076;52.354;4.970;2023-06-24T11:07:00;7.82;;;5.25;;
54171;SDS011;40076;52.354;4.970;2023-06-24T11:09:27;8.88;;;5.85;;
54171;SDS011;40076;52.354;4.970;2023-06-24T11:11:52;10.40;;;6.47;;
54171;SDS011;40076;52.354;4.970;2023-06-24T11:14:21;10.30;;;5.47;;
54171;SDS011;40076;52.354;4.970;2023-06-24T11:16:46;9.30;;;6.35;;
54171;SDS011;40076;52.354;4.970;2023-06-24T11:19:11;9.20;;;5.38;;
54171;SDS011;40076;52.354;4.970;2023-06-24T11:21:37;7.88;;;5.20;;
54171;SDS011;40076;52.354;4.970;2023-06-24T11:24:03;9.88;;;5.38;;
54171;SDS011;40076;52.354;4.970;2023-06-24T11:26:28;8.30;;;6.22;;
54171;SDS011;40076;52.354;4.970;2023-06-24T11:28:54;8.80;;;6.00;;
54171;SDS011;40076;52.354;4.970;2023-06-24T11:31:24;10.73;;;6.22;;
54171;SDS011;40076;52.354;4.970;2023-06-24T11:33:52;11.65;;;6.63;;
54171;SDS011;40076;52.354;4.970;2023-06-24T11:36:21;9.23;;;6.03;;
54171;SDS011;40076;52.354;4.970;2023-06-24T11:38:47;9.93;;;5.63;;
54171;SDS011;40076;52.354;4.970;2023-06-24T11:41:13;10.90;;;6.47;;
54171;SDS011;40076;52.354;4.970;2023-06-24T11:43:45;9.68;;;6.20;;
54171;SDS011;40076;52.354;4.970;2023-06-24T11:46:21;12.13;;;6.13;;
54171;SDS011;40076;52.354;4.970;2023-06-24T11:48:48;10.80;;;6.72;;
54171;SDS011;40076;52.354;4.970;2023-06-24T11:51:14;8.40;;;5.90;;
54171;SDS011;40076;52.354;4.970;2023-06-24T11:53:43;13.13;;;7.65;;
54171;SDS011;40076;52.354;4.970;2023-06-24T11:56:10;9.48;;;6.75;;
54171;SDS011;40076;52.354;4.970;2023-06-24T11:58:36;12.48;;;6.68;;
54171;SDS011;40076;52.354;4.970;2023-06-24T12:01:01;11.38;;;6.72;;
54171;SDS011;40076;52.354;4.970;2023-06-24T12:03:28;14.88;;;7.07;;
54171;SDS011;40076;52.354;4.970;2023-06-24T12:05:54;10.90;;;6.22;;
54171;SDS011;40076;52.354;4.970;2023-06-24T12:08:19;10.55;;;5.57;;
54171;SDS011;40076;52.354;4.970;2023-06-24T12:10:45;8.43;;;6.22;;
54171;SDS011;40076;52.354;4.970;2023-06-24T12:13:11;9.93;;;6.45;;
54171;SDS011;40076;52.354;4.970;2023-06-24T12:15:36;8.63;;;6.10;;
54171;SDS011;40076;52.354;4.970;2023-06-24T12:18:02;10.43;;;5.88;;
54171;SDS011;40076;52.354;4.970;2023-06-24T12:20:28;10.02;;;6.15;;
54171;SDS011;40076;52.354;4.970;2023-06-24T12:22:54;10.50;;;5.70;;
54171;SDS011;40076;52.354;4.970;2023-06-24T12:25:20;10.38;;;6.32;;
54171;SDS011;40076;52.354;4.970;2023-06-24T12:27:46;10.05;;;6.18;;
54171;SDS011;40076;52.354;4.970;2023-06-24T12:30:12;11.77;;;6.68;;
54171;SDS011;40076;52.354;4.970;2023-06-24T12:32:38;12.30;;;7.10;;
54171;SDS011;40076;52.354;4.970;2023-06-24T12:35:04;14.13;;;7.88;;
54171;SDS011;40076;52.354;4.970;2023-06-24T12:37:33;11.52;;;6.00;;
54171;SDS011;40076;52.354;4.970;2023-06-24T12:40:02;13.35;;;6.45;;
54171;SDS011;40076;52.354;4.970;2023-06-24T12:42:28;10.07;;;6.85;;
54171;SDS011;40076;52.354;4.970;2023-06-24T12:44:54;12.77;;;6.32;;
54171;SDS011;40076;52.354;4.970;2023-06-24T12:47:19;11.98;;;6.30;;
54171;SDS011;40076;52.354;4.970;2023-06-24T12:49:45;9.43;;;6.15;;
54171;SDS011;40076;52.354;4.970;2023-06-24T12:52:12;12.15;;;6.60;;
54171;SDS011;40076;52.354;4.970;2023-06-24T12:54:38;10.23;;;6.53;;
54171;SDS011;40076;52.354;4.970;2023-06-24T12:57:03;9.30;;;6.55;;
54171;SDS011;40076;52.354;4.970;2023-06-24T12:59:29;12.20;;;6.45;;
54171;SDS011;40076;52.354;4.970;2023-06-24T13:01:54;9.77;;;6.47;;
54171;SDS011;40076;52.354;4.970;2023-06-24T13:04:20;10.70;;;6.13;;
54171;SDS011;40076;52.354;4.970;2023-06-24T13:06:47;11.40;;;7.38;;
54171;SDS011;40076;52.354;4.970;2023-06-24T13:09:14;10.30;;;5.53;;
54171;SDS011;40076;52.354;4.970;2023-06-24T13:11:39;11.10;;;7.68;;
54171;SDS011;40076;52.354;4.970;2023-06-24T13:14:05;9.75;;;6.57;;
54171;SDS011;40076;52.354;4.970;2023-06-24T13:16:30;13.10;;;7.78;;
54171;SDS011;40076;52.354;4.970;2023-06-24T13:18:56;10.05;;;7.10;;
54171;SDS011;40076;52.354;4.970;2023-06-24T13:21:21;11.35;;;6.82;;
54171;SDS011;40076;52.354;4.970;2023-06-24T13:23:47;8.77;;;5.93;;
54171;SDS011;40076;52.354;4.970;2023-06-24T13:26:13;10.40;;;6.07;;
54171;SDS011;40076;52.354;4.970;2023-06-24T13:28:38;11.15;;;5.93;;
54171;SDS011;40076;52.354;4.970;2023-06-24T13:31:04;9.15;;;4.72;;
54171;SDS011;40076;52.354;4.970;2023-06-24T13:33:29;8.48;;;5.50;;
54171;SDS011;40076;52.354;4.970;2023-06-24T13:35:55;9.38;;;5.78;;
54171;SDS011;40076;52.354;4.970;2023-06-24T13:38:21;12.65;;;5.80;;
54171;SDS011;40076;52.354;4.970;2023-06-24T13:40:47;7.45;;;5.60;;
54171;SDS011;40076;52.354;4.970;2023-06-24T13:43:12;8.43;;;4.70;;
54171;SDS011;40076;52.354;4.970;2023-06-24T13:45:37;9.63;;;5.78;;
54171;SDS011;40076;52.354;4.970;2023-06-24T13:48:03;12.82;;;5.43;;
54171;SDS011;40076;52.354;4.970;2023-06-24T13:50:28;9.43;;;5.32;;
54171;SDS011;40076;52.354;4.970;2023-06-24T13:52:54;9.43;;;5.35;;
54171;SDS011;40076;52.354;4.970;2023-06-24T13:55:20;8.00;;;5.13;;
54171;SDS011;40076;52.354;4.970;2023-06-24T13:57:45;9.52;;;6.50;;
54171;SDS011;40076;52.354;4.970;2023-06-24T14:00:11;14.57;;;6.53;;
54171;SDS011;40076;52.354;4.970;2023-06-24T14:02:37;12.70;;;6.25;;
54171;SDS011;40076;52.354;4.970;2023-06-24T14:05:02;8.10;;;5.85;;
54171;SDS011;40076;52.354;4.970;2023-06-24T14:07:28;9.02;;;5.80;;
54171;SDS011;40076;52.354;4.970;2023-06-24T14:09:54;10.00;;;5.47;;
54171;SDS011;40076;52.354;4.970;2023-06-24T14:12:20;13.15;;;6.57;;
54171;SDS011;40076;52.354;4.970;2023-06-24T14:14:45;8.95;;;6.13;;
54171;SDS011;40076;52.354;4.970;2023-06-24T14:17:10;9.88;;;6.43;;
54171;SDS011;40076;52.354;4.970;2023-06-24T14:19:37;8.13;;;5.55;;
54171;SDS011;40076;52.354;4.970;2023-06-24T14:22:03;8.82;;;5.97;;
54171;SDS011;40076;52.354;4.970;2023-06-24T14:24:29;9.95;;;6.10;;
54171;SDS011;40076;52.354;4.970;2023-06-24T14:26:55;12.75;;;6.57;;
54171;SDS011;40076;52.354;4.970;2023-06-24T14:29:20;12.27;;;6.07;;
54171;SDS011;40076;52.354;4.970;2023-06-24T14:31:46;10.23;;;6.63;;
54171;SDS011;40076;52.354;4.970;2023-06-24T14:34:11;9.20;;;6.22;;
54171;SDS011;40076;52.354;4.970;2023-06-24T14:36:37;6.95;;;5.47;;
54171;SDS011;40076;52.354;4.970;2023-06-24T14:39:02;10.20;;;5.30;;
54171;SDS011;40076;52.354;4.970;2023-06-24T14:41:27;9.75;;;5.32;;
54171;SDS011;40076;52.354;4.970;2023-06-24T14:43:53;9.35;;;5.97;;
54171;SDS011;40076;52.354;4.970;2023-06-24T14:46:18;7.50;;;5.35;;
54171;SDS011;40076;52.354;4.970;2023-06-24T14:48:43;8.88;;;4.78;;
54171;SDS011;40076;52.354;4.970;2023-06-24T14:51:09;10.77;;;6.28;;
54171;SDS011;40076;52.354;4.970;2023-06-24T14:53:34;8.05;;;5.72;;
54171;SDS011;40076;52.354;4.970;2023-06-24T14:55:59;7.18;;;5.35;;
54171;SDS011;40076;52.354;4.970;2023-06-24T14:58:25;10.63;;;5.88;;
54171;SDS011;40076;52.354;4.970;2023-06-24T15:00:50;7.68;;;5.00;;
54171;SDS011;40076;52.354;4.970;2023-06-24T15:03:15;8.73;;;5.50;;
54171;SDS011;40076;52.354;4.970;2023-06-24T15:05:41;10.13;;;5.63;;
54171;SDS011;40076;52.354;4.970;2023-06-24T15:08:06;8.55;;;5.43;;
54171;SDS011;40076;52.354;4.970;2023-06-24T15:10:32;7.35;;;5.60;;
54171;SDS011;40076;52.354;4.970;2023-06-24T15:12:57;7.60;;;6.13;;
54171;SDS011;40076;52.354;4.970;2023-06-24T15:15:23;13.05;;;6.72;;
54171;SDS011;40076;52.354;4.970;2023-06-24T15:17:48;10.40;;;6.38;;
54171;SDS011;40076;52.354;4.970;2023-06-24T15:20:13;8.07;;;5.60;;
54171;SDS011;40076;52.354;4.970;2023-06-24T15:22:39;9.15;;;6.63;;
54171;SDS011;40076;52.354;4.970;2023-06-24T15:25:05;7.70;;;6.35;;
54171;SDS011;40076;52.354;4.970;2023-06-24T15:27:31;11.63;;;6.57;;
54171;SDS011;40076;52.354;4.970;2023-06-24T15:29:57;8.73;;;6.18;;
54171;SDS011;40076;52.354;4.970;2023-06-24T15:32:22;7.60;;;5.20;;
54171;SDS011;40076;52.354;4.970;2023-06-24T15:34:47;10.85;;;7.43;;
54171;SDS011;40076;52.354;4.970;2023-06-24T15:37:13;8.00;;;5.78;;
54171;SDS011;40076;52.354;4.970;2023-06-24T15:39:41;12.98;;;6.15;;
54171;SDS011;40076;52.354;4.970;2023-06-24T15:42:07;8.32;;;6.57;;
54171;SDS011;40076;52.354;4.970;2023-06-24T15:44:32;10.27;;;7.13;;
54171;SDS011;40076;52.354;4.970;2023-06-24T15:46:58;8.43;;;6.25;;